Página principal
METAR-TAF:

METAR-TAF

Aeroportos :

Aeroporto Internacional Amílcar Cabral

Sal, Cabo Verde

latitude: 16-44N, longitude: 022-57W, altura: 54 m

Observação actual do tempo

O boletim foi feito há 53 minutos, às 00:00 UTC
Vento 14 kt de es-nordeste
Temperatura 22°C
Humidade 69%
Pressão 1018 hPa
Visibilidade 10 km ou mais
Poucas nuvensa uma altura de 1400 ft

METAR: GVAC 140000Z 06014KT 9999 FEW014 22/16 Q1018 NOSIG

Hora: 23:53 (00:53 UTC)

Previsão

O boletim foi feito há 1 hora e 53 minutos, às 23:00 UTC
Previsão válida de 14 às 00 UTC a 15 às 06 UTC
Vento 15 kt de nordeste
Visibilidade 10 km ou mais
Poucas nuvensa uma altura de 1400 ft
Tornando-se
de 14 às 10 UTC a 14 às 12 UTC
Vento 25 kt de nordeste

TAF: GVAC 132300Z 1400/1506 05015KT 9999 FEW014 BECMG 1410/1412 05025KT

Observações e previsões do tempo de mais de 4000 aeroportos (mensagens METAR e TAF).

As estações disponíveis são os pontos amarelos e vermelhos sobre o mapa.

Mova o rato sobre o mapa para ver o nome da estação.

Depois clique no ponto para visualizar as observações e previsões meteorológicas.

Para alterar o mapa : clique nos botões verdes com uma cruz preta para aumentar o zoom; no botão verde com uma pitada de zoom; ou nas setas verdes para mapas adjacentes.


METAR-TAF: